createdAt,value
2022-10-18T00:04:23.447Z,50.43
2022-10-18T00:09:27.589Z,52.83
2022-10-18T00:14:30.188Z,52.47
2022-10-18T00:19:32.527Z,47.90
2022-10-18T00:24:35.334Z,50.83
2022-10-18T00:29:37.808Z,46.70
2022-10-18T00:34:40.456Z,48.47
2022-10-18T00:39:43.000Z,48.80
2022-10-18T00:44:45.320Z,52.20
2022-10-18T00:49:53.470Z,58.23
2022-10-18T00:54:56.997Z,62.97
2022-10-18T00:59:59.885Z,54.93
2022-10-18T01:05:02.211Z,52.83
2022-10-18T01:10:19.541Z,56.30
2022-10-18T01:15:31.522Z,54.17
2022-10-18T01:20:39.540Z,58.23
2022-10-18T01:26:14.008Z,59.33
2022-10-18T01:31:30.187Z,57.07
2022-10-18T01:36:39.385Z,49.87
2022-10-18T01:41:44.589Z,48.87
2022-10-18T01:46:47.639Z,50.20
2022-10-18T01:51:50.130Z,47.67
2022-10-18T01:57:01.675Z,54.20
2022-10-18T02:02:23.809Z,46.83
2022-10-18T02:07:55.298Z,48.47
2022-10-18T02:13:11.604Z,47.83
2022-10-18T02:18:23.148Z,61.40
2022-10-18T02:23:26.837Z,74.67
2022-10-18T02:28:29.805Z,107.93
2022-10-18T02:33:40.138Z,113.33
2022-10-18T02:38:44.625Z,99.07
2022-10-18T02:43:47.094Z,107.13
2022-10-18T02:48:50.110Z,118.73
2022-10-18T02:53:52.663Z,119.70
2022-10-18T02:58:55.403Z,103.33
2022-10-18T03:03:57.858Z,87.63
2022-10-18T03:09:03.123Z,76.30
2022-10-18T03:14:05.605Z,84.63
2022-10-18T03:19:08.003Z,96.50
2022-10-18T03:24:10.351Z,128.80
2022-10-18T03:29:12.930Z,160.73
2022-10-18T03:34:16.993Z,89.63
2022-10-18T03:39:19.501Z,75.07
2022-10-18T03:44:21.881Z,81.00
2022-10-18T03:49:24.489Z,74.00
2022-10-18T03:54:26.957Z,70.17
2022-10-18T03:59:29.680Z,75.87
2022-10-18T04:04:32.093Z,76.30
2022-10-18T04:09:34.528Z,69.77
2022-10-18T04:14:36.936Z,68.67
2022-10-18T04:19:41.979Z,89.57
2022-10-18T04:24:44.578Z,84.93
2022-10-18T04:29:46.994Z,82.00
2022-10-18T04:34:49.465Z,77.60
2022-10-18T04:39:53.643Z,87.17
2022-10-18T04:44:56.386Z,78.80
2022-10-18T04:49:58.828Z,93.17
2022-10-18T04:55:01.198Z,90.13
2022-10-18T05:00:04.930Z,82.27
2022-10-18T05:05:10.415Z,87.97
2022-10-18T05:10:15.810Z,84.43
2022-10-18T05:15:18.251Z,105.03
2022-10-18T05:20:20.718Z,114.13
2022-10-18T05:25:23.195Z,100.53
2022-10-18T05:30:27.077Z,93.47
2022-10-18T05:35:29.402Z,82.33
2022-10-18T05:40:38.009Z,70.00
2022-10-18T05:45:40.346Z,78.43
2022-10-18T05:50:43.020Z,82.30
2022-10-18T05:55:45.318Z,80.33
2022-10-18T06:00:47.650Z,71.77
2022-10-18T06:05:49.908Z,79.03
2022-10-18T06:10:52.270Z,76.57
2022-10-18T06:15:57.754Z,70.73
2022-10-18T06:21:03.120Z,103.50
2022-10-18T06:26:07.922Z,92.03
2022-10-18T06:31:11.824Z,94.00
2022-10-18T06:36:16.697Z,91.20
2022-10-18T06:41:19.774Z,109.37
2022-10-18T06:46:22.202Z,100.30
2022-10-18T06:51:24.599Z,86.90
2022-10-18T06:56:27.178Z,84.47
2022-10-18T07:01:30.345Z,69.33
2022-10-18T07:06:32.858Z,74.90
2022-10-18T07:11:35.383Z,68.70
2022-10-18T07:16:37.862Z,61.60
2022-10-18T07:21:40.419Z,57.17
2022-10-18T07:26:42.921Z,74.30
2022-10-18T07:31:45.406Z,57.90
2022-10-18T07:36:47.807Z,58.57
2022-10-18T07:41:50.306Z,76.83
2022-10-18T07:46:53.112Z,67.90
2022-10-18T07:51:55.668Z,70.57
2022-10-18T07:56:58.427Z,64.43
2022-10-18T08:02:00.870Z,58.97
2022-10-18T08:07:03.352Z,67.87
2022-10-18T08:12:05.953Z,60.67
2022-10-18T08:17:08.463Z,68.13
2022-10-18T08:22:10.788Z,136.97
2022-10-18T08:27:13.241Z,57.83
2022-10-18T08:32:15.638Z,66.20
2022-10-18T08:37:18.038Z,54.33
2022-10-18T08:42:31.001Z,48.83
2022-10-18T08:47:43.796Z,51.17
2022-10-18T08:52:55.098Z,47.70
2022-10-18T08:57:58.487Z,46.43
2022-10-18T09:03:38.910Z,47.67
2022-10-18T09:08:56.505Z,48.77
2022-10-18T09:14:14.104Z,47.63
2022-10-18T09:19:31.631Z,41.70
2022-10-18T09:24:48.395Z,42.00
2022-10-18T09:30:09.649Z,49.53
2022-10-18T09:35:14.970Z,47.17
2022-10-18T09:40:37.122Z,45.00
2022-10-18T09:45:46.027Z,50.57
2022-10-18T09:51:08.071Z,45.43
2022-10-18T09:56:46.565Z,47.37
2022-10-18T10:01:48.914Z,51.27
2022-10-18T10:06:54.124Z,44.73
2022-10-18T10:11:57.632Z,42.07
2022-10-18T10:17:03.681Z,53.27
2022-10-18T10:22:13.918Z,45.77
2022-10-18T10:27:43.587Z,49.70
2022-10-18T10:32:48.673Z,47.50
2022-10-18T10:37:52.669Z,49.63
2022-10-18T10:43:13.016Z,45.50
2022-10-18T10:48:23.958Z,52.53
2022-10-18T10:53:41.255Z,54.20
2022-10-18T10:58:43.659Z,57.33
2022-10-18T11:03:51.493Z,62.40
2022-10-18T11:08:54.329Z,53.50
2022-10-18T11:14:27.110Z,50.03
2022-10-18T11:19:49.137Z,57.07
2022-10-18T11:24:51.830Z,75.57
2022-10-18T11:30:13.739Z,64.60
2022-10-18T11:35:51.906Z,49.43
2022-10-18T11:41:11.918Z,48.43
2022-10-18T11:46:21.918Z,51.70
2022-10-18T11:51:56.329Z,47.67
2022-10-18T11:57:28.713Z,39.90
2022-10-18T12:02:34.175Z,35.27
2022-10-18T12:07:53.862Z,44.50
2022-10-18T12:13:03.627Z,56.40
2022-10-18T12:18:13.463Z,38.40
2022-10-18T12:23:21.648Z,24.70
2022-10-18T12:28:39.044Z,34.13
2022-10-18T12:33:48.310Z,32.37
2022-10-18T12:39:09.794Z,30.03
2022-10-18T12:44:38.559Z,30.07
2022-10-18T12:49:44.609Z,41.63
2022-10-18T12:55:08.088Z,37.47
2022-10-18T13:00:30.311Z,19.40
2022-10-18T13:05:53.340Z,16.50
2022-10-18T13:11:12.047Z,73.37
2022-10-18T13:16:26.409Z,28.73
2022-10-18T13:22:06.472Z,58.47
2022-10-18T13:27:42.428Z,29.67
2022-10-18T13:33:06.619Z,32.70
2022-10-18T13:38:31.893Z,23.83
2022-10-18T13:43:52.898Z,18.67
2022-10-18T13:49:00.478Z,14.83
2022-10-18T13:54:23.713Z,15.60
2022-10-18T14:00:15.354Z,32.53
2022-10-18T14:05:35.990Z,29.33
2022-10-18T14:11:08.032Z,23.00
2022-10-18T14:16:43.035Z,15.13
2022-10-18T14:21:53.664Z,14.87
2022-10-18T14:27:16.301Z,18.33
2022-10-18T14:32:30.443Z,50.67
2022-10-18T14:37:36.923Z,117.50
2022-10-18T14:42:48.814Z,47.10
2022-10-18T14:47:51.131Z,32.37
2022-10-18T14:52:54.258Z,58.13
2022-10-18T14:57:56.701Z,56.97
2022-10-18T15:02:59.155Z,62.37
2022-10-18T15:08:01.784Z,62.97
2022-10-18T15:13:10.229Z,64.70
2022-10-18T15:18:26.514Z,37.83
2022-10-18T15:23:32.294Z,39.80
2022-10-18T15:28:40.724Z,42.17
2022-10-18T15:33:43.134Z,55.90
2022-10-18T15:38:47.648Z,90.27
2022-10-18T15:43:52.358Z,67.50
2022-10-18T15:49:18.397Z,45.67
2022-10-18T15:54:30.551Z,71.00
2022-10-18T15:59:32.891Z,40.80
2022-10-18T16:04:37.059Z,52.30
2022-10-18T16:09:39.416Z,92.40
2022-10-18T16:14:41.797Z,386.73
2022-10-18T16:19:44.783Z,170.70
2022-10-18T16:24:47.836Z,78.50
2022-10-18T16:29:50.151Z,59.20
2022-10-18T16:34:52.475Z,62.07
2022-10-18T16:39:54.812Z,58.87
2022-10-18T16:44:58.638Z,71.83
2022-10-18T16:50:06.493Z,81.67
2022-10-18T16:55:16.336Z,79.07
2022-10-18T17:00:21.847Z,93.87
2022-10-18T17:05:24.456Z,100.73
2022-10-18T17:10:27.663Z,102.03
2022-10-18T17:15:32.825Z,97.07
2022-10-18T17:20:37.477Z,61.10
2022-10-18T17:25:57.347Z,71.87
2022-10-18T17:31:07.376Z,77.30
2022-10-18T17:36:09.731Z,45.10
2022-10-18T17:41:12.134Z,54.27
2022-10-18T17:46:14.720Z,80.17
2022-10-18T17:51:18.039Z,24.27
2022-10-18T17:56:20.357Z,19.77
2022-10-18T18:01:23.403Z,32.37
2022-10-18T18:06:31.251Z,31.57
2022-10-18T18:11:34.669Z,108.47
2022-10-18T18:16:38.894Z,50.43
2022-10-18T18:21:42.540Z,29.67
2022-10-18T18:26:44.855Z,19.63
2022-10-18T18:31:47.285Z,27.90
2022-10-18T18:36:51.949Z,19.37
2022-10-18T18:41:54.262Z,27.93
2022-10-18T18:46:58.229Z,24.83
2022-10-18T18:52:00.631Z,24.90
2022-10-18T18:57:05.305Z,25.40
2022-10-18T19:02:09.139Z,23.77
2022-10-18T19:07:11.446Z,24.07
2022-10-18T19:12:15.352Z,21.80
2022-10-18T19:17:21.690Z,27.10
2022-10-18T19:22:24.038Z,27.27
2022-10-18T19:27:26.418Z,26.03
2022-10-18T19:37:31.493Z,32.83
2022-10-18T19:42:34.547Z,31.20
2022-10-18T19:47:38.460Z,33.70
2022-10-18T19:52:40.948Z,41.33
2022-10-18T19:57:43.307Z,30.60
2022-10-18T20:02:45.660Z,33.33
2022-10-18T20:07:47.983Z,27.87
2022-10-18T20:12:50.528Z,34.67
2022-10-18T20:17:52.853Z,40.07
2022-10-18T20:22:55.248Z,41.13
2022-10-18T20:27:57.608Z,35.43
2022-10-18T20:33:00.098Z,53.10
2022-10-18T20:38:02.433Z,59.43
2022-10-18T20:43:04.796Z,50.23
2022-10-18T20:48:07.171Z,41.30
2022-10-18T20:53:09.525Z,36.80
2022-10-18T20:58:12.299Z,35.97
2022-10-18T21:03:15.109Z,35.40
2022-10-18T21:08:17.410Z,30.07
2022-10-18T21:13:19.697Z,29.33
2022-10-18T21:18:29.799Z,28.47
2022-10-18T21:23:32.153Z,31.43
2022-10-18T21:28:35.005Z,24.40
2022-10-18T21:33:37.426Z,24.83
2022-10-18T21:38:40.092Z,24.90
2022-10-18T21:43:45.000Z,24.70
2022-10-18T21:48:49.699Z,23.67
2022-10-18T21:53:54.551Z,24.70
2022-10-18T21:58:57.911Z,26.70
2022-10-18T22:04:03.472Z,23.77
2022-10-18T22:09:08.278Z,28.07
2022-10-18T22:14:11.148Z,24.03
2022-10-18T22:19:13.588Z,31.60
2022-10-18T22:24:16.237Z,30.00
2022-10-18T22:29:20.968Z,29.87
2022-10-18T22:34:29.134Z,40.47
2022-10-18T22:39:31.424Z,30.23
2022-10-18T22:44:37.049Z,26.50
2022-10-18T22:49:39.407Z,37.77
2022-10-18T22:54:42.044Z,31.00
2022-10-18T22:59:44.352Z,31.10
2022-10-18T23:04:46.698Z,29.93
2022-10-18T23:09:49.094Z,33.93
2022-10-18T23:14:51.423Z,34.90
2022-10-18T23:19:53.798Z,35.80
2022-10-18T23:24:56.086Z,32.43
2022-10-18T23:29:58.381Z,40.77
2022-10-18T23:35:00.767Z,35.97
2022-10-18T23:40:03.371Z,41.23
2022-10-18T23:45:06.405Z,44.90
2022-10-18T23:50:09.091Z,50.33
2022-10-18T23:55:11.380Z,51.57
